sensor_id;sensor_type;location;lat;lon;timestamp;pressure;altitude;pressure_sealevel;temperature;humidity
43436;BME280;36399;51.444;-2.018;2022-09-09T00:02:18;99097.03;;;13.39;100.00
43436;BME280;36399;51.444;-2.018;2022-09-09T00:04:59;99097.84;;;13.43;100.00
43436;BME280;36399;51.444;-2.018;2022-09-09T00:07:47;99093.38;;;13.46;100.00
43436;BME280;36399;51.444;-2.018;2022-09-09T00:15:38;99101.31;;;13.45;100.00
43436;BME280;36399;51.444;-2.018;2022-09-09T00:21:15;99103.13;;;13.43;100.00
43436;BME280;36399;51.444;-2.018;2022-09-09T00:23:48;99098.72;;;13.43;100.00
43436;BME280;36399;51.444;-2.018;2022-09-09T00:26:35;99096.88;;;13.47;100.00
43436;BME280;36399;51.444;-2.018;2022-09-09T00:29:13;99101.25;;;13.48;100.00
43436;BME280;36399;51.444;-2.018;2022-09-09T00:31:42;99095.22;;;13.43;100.00
43436;BME280;36399;51.444;-2.018;2022-09-09T00:34:25;99092.56;;;13.43;100.00
43436;BME280;36399;51.444;-2.018;2022-09-09T00:36:54;99095.38;;;13.35;100.00
43436;BME280;36399;51.444;-2.018;2022-09-09T00:39:35;99100.75;;;13.31;100.00
43436;BME280;36399;51.444;-2.018;2022-09-09T00:44:37;99105.19;;;13.27;100.00
43436;BME280;36399;51.444;-2.018;2022-09-09T00:57:23;99113.78;;;13.37;100.00
43436;BME280;36399;51.444;-2.018;2022-09-09T00:59:53;99108.47;;;13.40;100.00
43436;BME280;36399;51.444;-2.018;2022-09-09T01:02:39;99113.66;;;13.43;100.00
43436;BME280;36399;51.444;-2.018;2022-09-09T01:05:22;99115.31;;;13.48;100.00
43436;BME280;36399;51.444;-2.018;2022-09-09T01:07:53;99110.84;;;13.52;100.00
43436;BME280;36399;51.444;-2.018;2022-09-09T01:13:05;99104.78;;;13.47;100.00
43436;BME280;36399;51.444;-2.018;2022-09-09T01:15:38;99108.25;;;13.49;100.00
43436;BME280;36399;51.444;-2.018;2022-09-09T01:18:08;99103.00;;;13.49;100.00
43436;BME280;36399;51.444;-2.018;2022-09-09T01:24:19;99102.94;;;13.52;100.00
43436;BME280;36399;51.444;-2.018;2022-09-09T01:29:01;99113.53;;;13.49;100.00
43436;BME280;36399;51.444;-2.018;2022-09-09T01:31:31;99119.63;;;13.52;100.00
43436;BME280;36399;51.444;-2.018;2022-09-09T01:33:58;99127.53;;;13.54;100.00
43436;BME280;36399;51.444;-2.018;2022-09-09T01:36:29;99126.59;;;13.56;100.00
43436;BME280;36399;51.444;-2.018;2022-09-09T01:38:59;99137.09;;;13.58;100.00
43436;BME280;36399;51.444;-2.018;2022-09-09T01:41:25;99137.94;;;13.60;100.00
43436;BME280;36399;51.444;-2.018;2022-09-09T01:43:53;99132.69;;;13.58;100.00
43436;BME280;36399;51.444;-2.018;2022-09-09T01:46:22;99129.13;;;13.61;100.00
43436;BME280;36399;51.444;-2.018;2022-09-09T01:48:51;99123.78;;;13.64;100.00
43436;BME280;36399;51.444;-2.018;2022-09-09T01:51:19;99134.34;;;13.64;100.00
43436;BME280;36399;51.444;-2.018;2022-09-09T01:53:46;99136.00;;;13.68;100.00
43436;BME280;36399;51.444;-2.018;2022-09-09T01:56:18;99142.13;;;13.70;100.00
43436;BME280;36399;51.444;-2.018;2022-09-09T02:02:04;99135.91;;;13.73;100.00
43436;BME280;36399;51.444;-2.018;2022-09-09T02:04:39;99135.00;;;13.74;100.00
43436;BME280;36399;51.444;-2.018;2022-09-09T02:09:55;99142.03;;;13.75;100.00
43436;BME280;36399;51.444;-2.018;2022-09-09T02:12:24;99142.97;;;13.72;100.00
43436;BME280;36399;51.444;-2.018;2022-09-09T02:14:56;99151.75;;;13.73;100.00
43436;BME280;36399;51.444;-2.018;2022-09-09T02:17:31;99148.16;;;13.75;100.00
43436;BME280;36399;51.444;-2.018;2022-09-09T02:20:05;99149.91;;;13.76;100.00
43436;BME280;36399;51.444;-2.018;2022-09-09T02:22:33;99150.88;;;13.72;100.00
43436;BME280;36399;51.444;-2.018;2022-09-09T02:25:02;99151.88;;;13.67;100.00
43436;BME280;36399;51.444;-2.018;2022-09-09T02:27:31;99150.22;;;13.61;100.00
43436;BME280;36399;51.444;-2.018;2022-09-09T02:29:59;99153.06;;;13.50;100.00
43436;BME280;36399;51.444;-2.018;2022-09-09T02:32:28;99154.91;;;13.45;100.00
43436;BME280;36399;51.444;-2.018;2022-09-09T02:35:03;99157.69;;;13.38;100.00
43436;BME280;36399;51.444;-2.018;2022-09-09T02:37:37;99156.88;;;13.36;100.00
43436;BME280;36399;51.444;-2.018;2022-09-09T02:40:09;99160.53;;;13.27;100.00
43436;BME280;36399;51.444;-2.018;2022-09-09T02:42:43;99159.75;;;13.23;100.00
43436;BME280;36399;51.444;-2.018;2022-09-09T02:45:13;99172.00;;;13.24;100.00
43436;BME280;36399;51.444;-2.018;2022-09-09T02:52:42;99160.66;;;13.21;100.00
43436;BME280;36399;51.444;-2.018;2022-09-09T02:55:39;99172.06;;;13.21;100.00
43436;BME280;36399;51.444;-2.018;2022-09-09T02:58:08;99169.47;;;13.20;100.00
43436;BME280;36399;51.444;-2.018;2022-09-09T03:00:37;99173.91;;;13.16;100.00
43436;BME280;36399;51.444;-2.018;2022-09-09T03:03:06;99181.00;;;13.11;100.00
43436;BME280;36399;51.444;-2.018;2022-09-09T03:05:34;99181.94;;;13.09;100.00
43436;BME280;36399;51.444;-2.018;2022-09-09T03:08:01;99187.19;;;13.10;100.00
43436;BME280;36399;51.444;-2.018;2022-09-09T03:10:27;99180.19;;;13.08;100.00
43436;BME280;36399;51.444;-2.018;2022-09-09T03:12:53;99181.13;;;13.05;100.00
43436;BME280;36399;51.444;-2.018;2022-09-09T03:15:21;99185.53;;;13.05;100.00
43436;BME280;36399;51.444;-2.018;2022-09-09T03:17:47;99191.72;;;13.02;100.00
43436;BME280;36399;51.444;-2.018;2022-09-09T03:20:13;99192.63;;;12.98;100.00
43436;BME280;36399;51.444;-2.018;2022-09-09T03:22:39;99197.00;;;12.99;100.00
43436;BME280;36399;51.444;-2.018;2022-09-09T03:25:06;99195.19;;;13.04;100.00
43436;BME280;36399;51.444;-2.018;2022-09-09T03:27:32;99196.09;;;13.03;100.00
43436;BME280;36399;51.444;-2.018;2022-09-09T03:29:58;99187.28;;;13.04;100.00
43436;BME280;36399;51.444;-2.018;2022-09-09T03:32:24;99193.47;;;13.03;100.00
43436;BME280;36399;51.444;-2.018;2022-09-09T03:34:52;99189.88;;;13.07;100.00
43436;BME280;36399;51.444;-2.018;2022-09-09T03:37:21;99201.31;;;13.06;100.00
43436;BME280;36399;51.444;-2.018;2022-09-09T03:39:48;99199.59;;;13.04;100.00
43436;BME280;36399;51.444;-2.018;2022-09-09T03:42:15;99202.19;;;13.07;100.00
43436;BME280;36399;51.444;-2.018;2022-09-09T03:44:45;99204.84;;;13.05;100.00
43436;BME280;36399;51.444;-2.018;2022-09-09T03:47:20;99213.66;;;13.03;100.00
43436;BME280;36399;51.444;-2.018;2022-09-09T03:49:47;99212.75;;;13.05;100.00
43436;BME280;36399;51.444;-2.018;2022-09-09T03:52:14;99211.84;;;13.06;100.00
43436;BME280;36399;51.444;-2.018;2022-09-09T03:54:41;99212.72;;;13.07;100.00
43436;BME280;36399;51.444;-2.018;2022-09-09T03:57:09;99216.16;;;13.10;100.00
43436;BME280;36399;51.444;-2.018;2022-09-09T03:59:36;99216.13;;;13.13;100.00
43436;BME280;36399;51.444;-2.018;2022-09-09T04:02:02;99213.44;;;13.15;100.00
43436;BME280;36399;51.444;-2.018;2022-09-09T04:04:29;99218.69;;;13.18;100.00
43436;BME280;36399;51.444;-2.018;2022-09-09T04:06:55;99219.50;;;13.21;100.00
43436;BME280;36399;51.444;-2.018;2022-09-09T04:09:20;99206.41;;;13.17;100.00
43436;BME280;36399;51.444;-2.018;2022-09-09T04:11:47;99209.03;;;13.15;100.00
43436;BME280;36399;51.444;-2.018;2022-09-09T04:14:13;99217.00;;;13.12;100.00
43436;BME280;36399;51.444;-2.018;2022-09-09T04:16:39;99227.53;;;13.12;100.00
43436;BME280;36399;51.444;-2.018;2022-09-09T04:19:05;99228.38;;;13.17;100.00
43436;BME280;36399;51.444;-2.018;2022-09-09T04:21:32;99218.78;;;13.12;100.00
43436;BME280;36399;51.444;-2.018;2022-09-09T04:23:58;99224.00;;;13.13;100.00
43436;BME280;36399;51.444;-2.018;2022-09-09T04:26:24;99230.25;;;13.09;100.00
43436;BME280;36399;51.444;-2.018;2022-09-09T04:28:50;99227.59;;;13.09;100.00
43436;BME280;36399;51.444;-2.018;2022-09-09T04:31:18;99228.50;;;13.08;100.00
43436;BME280;36399;51.444;-2.018;2022-09-09T04:33:45;99221.50;;;13.07;100.00
43436;BME280;36399;51.444;-2.018;2022-09-09T04:36:12;99223.16;;;13.11;100.00
43436;BME280;36399;51.444;-2.018;2022-09-09T04:38:38;99228.44;;;13.11;100.00
43436;BME280;36399;51.444;-2.018;2022-09-09T04:41:05;99236.28;;;13.14;100.00
43436;BME280;36399;51.444;-2.018;2022-09-09T04:43:31;99237.19;;;13.13;100.00
43436;BME280;36399;51.444;-2.018;2022-09-09T04:45:57;99245.09;;;13.13;100.00
43436;BME280;36399;51.444;-2.018;2022-09-09T04:48:25;99237.19;;;13.13;100.00
43436;BME280;36399;51.444;-2.018;2022-09-09T04:50:55;99249.47;;;13.14;100.00
43436;BME280;36399;51.444;-2.018;2022-09-09T04:53:22;99248.56;;;13.15;100.00
43436;BME280;36399;51.444;-2.018;2022-09-09T04:55:48;99252.94;;;13.16;100.00
43436;BME280;36399;51.444;-2.018;2022-09-09T04:58:15;99258.22;;;13.16;100.00
43436;BME280;36399;51.444;-2.018;2022-09-09T05:00:40;99254.66;;;13.20;100.00
43436;BME280;36399;51.444;-2.018;2022-09-09T05:03:07;99265.25;;;13.17;100.00
43436;BME280;36399;51.444;-2.018;2022-09-09T05:05:34;99267.00;;;13.18;100.00
43436;BME280;36399;51.444;-2.018;2022-09-09T05:08:03;99273.16;;;13.17;100.00
43436;BME280;36399;51.444;-2.018;2022-09-09T05:10:30;99267.00;;;13.18;100.00
43436;BME280;36399;51.444;-2.018;2022-09-09T05:12:56;99279.25;;;13.21;100.00
43436;BME280;36399;51.444;-2.018;2022-09-09T05:15:22;99272.19;;;13.23;100.00
43436;BME280;36399;51.444;-2.018;2022-09-09T05:17:48;99276.56;;;13.24;100.00
43436;BME280;36399;51.444;-2.018;2022-09-09T05:20:14;99279.19;;;13.25;100.00
43436;BME280;36399;51.444;-2.018;2022-09-09T05:22:40;99286.19;;;13.26;100.00
43436;BME280;36399;51.444;-2.018;2022-09-09T05:25:06;99289.66;;;13.29;100.00
43436;BME280;36399;51.444;-2.018;2022-09-09T05:27:34;99288.78;;;13.28;100.00
43436;BME280;36399;51.444;-2.018;2022-09-09T05:30:00;99287.94;;;13.26;100.00
43436;BME280;36399;51.444;-2.018;2022-09-09T05:32:26;99293.25;;;13.24;100.00
43436;BME280;36399;51.444;-2.018;2022-09-09T05:34:52;99293.25;;;13.24;100.00
43436;BME280;36399;51.444;-2.018;2022-09-09T05:37:18;99301.22;;;13.21;100.00
43436;BME280;36399;51.444;-2.018;2022-09-09T05:39:44;99303.78;;;13.24;100.00
43436;BME280;36399;51.444;-2.018;2022-09-09T05:42:10;99299.44;;;13.22;100.00
43436;BME280;36399;51.444;-2.018;2022-09-09T05:44:36;99295.88;;;13.24;100.00
43436;BME280;36399;51.444;-2.018;2022-09-09T05:47:03;99303.78;;;13.24;100.00
43436;BME280;36399;51.444;-2.018;2022-09-09T05:49:29;99296.88;;;13.17;100.00
43436;BME280;36399;51.444;-2.018;2022-09-09T05:51:54;99303.91;;;13.15;100.00
43436;BME280;36399;51.444;-2.018;2022-09-09T05:54:20;99312.81;;;13.08;100.00
43436;BME280;36399;51.444;-2.018;2022-09-09T05:56:47;99319.94;;;13.02;100.00
43436;BME280;36399;51.444;-2.018;2022-09-09T05:59:15;99322.56;;;13.00;100.00
43436;BME280;36399;51.444;-2.018;2022-09-09T06:01:41;99318.19;;;13.02;100.00
43436;BME280;36399;51.444;-2.018;2022-09-09T06:04:07;99326.97;;;13.01;100.00
43436;BME280;36399;51.444;-2.018;2022-09-09T06:06:36;99336.66;;;12.98;100.00
43436;BME280;36399;51.444;-2.018;2022-09-09T06:09:03;99339.38;;;12.93;100.00
43436;BME280;36399;51.444;-2.018;2022-09-09T06:11:33;99346.28;;;13.00;100.00
43436;BME280;36399;51.444;-2.018;2022-09-09T06:14:00;99342.78;;;13.01;100.00
43436;BME280;36399;51.444;-2.018;2022-09-09T06:16:27;99347.97;;;13.07;100.00
43436;BME280;36399;51.444;-2.018;2022-09-09T06:18:54;99361.97;;;13.09;100.00
43436;BME280;36399;51.444;-2.018;2022-09-09T06:21:27;99356.66;;;13.12;100.00
43436;BME280;36399;51.444;-2.018;2022-09-09T06:23:53;99357.44;;;13.20;100.00
43436;BME280;36399;51.444;-2.018;2022-09-09T06:26:24;99366.16;;;13.25;100.00
43436;BME280;36399;51.444;-2.018;2022-09-09T06:28:52;99366.78;;;13.40;100.00
43436;BME280;36399;51.444;-2.018;2022-09-09T06:31:23;99357.91;;;13.45;100.00
43436;BME280;36399;51.444;-2.018;2022-09-09T06:33:51;99368.50;;;13.42;100.00
43436;BME280;36399;51.444;-2.018;2022-09-09T06:36:19;99366.63;;;13.50;100.00
43436;BME280;36399;51.444;-2.018;2022-09-09T06:38:46;99378.94;;;13.48;100.00
43436;BME280;36399;51.444;-2.018;2022-09-09T06:41:14;99386.78;;;13.54;100.00
43436;BME280;36399;51.444;-2.018;2022-09-09T06:43:41;99386.69;;;13.61;100.00
43436;BME280;36399;51.444;-2.018;2022-09-09T06:46:10;99401.69;;;13.57;100.00
43436;BME280;36399;51.444;-2.018;2022-09-09T06:48:36;99394.56;;;13.62;100.00
43436;BME280;36399;51.444;-2.018;2022-09-09T06:51:04;99399.94;;;13.56;100.00
43436;BME280;36399;51.444;-2.018;2022-09-09T06:53:33;99402.38;;;13.68;100.00
43436;BME280;36399;51.444;-2.018;2022-09-09T06:56:01;99413.66;;;13.76;100.00
43436;BME280;36399;51.444;-2.018;2022-09-09T06:58:28;99422.09;;;13.97;100.00
43436;BME280;36399;51.444;-2.018;2022-09-09T07:01:05;99420.22;;;14.05;100.00
43436;BME280;36399;51.444;-2.018;2022-09-09T07:03:31;99433.81;;;14.31;100.00
43436;BME280;36399;51.444;-2.018;2022-09-09T07:05:58;99446.69;;;14.49;100.00
43436;BME280;36399;51.444;-2.018;2022-09-09T07:08:25;99454.41;;;14.62;100.00
43436;BME280;36399;51.444;-2.018;2022-09-09T07:10:52;99463.94;;;14.69;100.00
43436;BME280;36399;51.444;-2.018;2022-09-09T07:13:26;99485.72;;;14.80;100.00
43436;BME280;36399;51.444;-2.018;2022-09-09T07:15:52;99501.34;;;14.92;100.00
43436;BME280;36399;51.444;-2.018;2022-09-09T07:18:19;99511.19;;;14.84;100.00
43436;BME280;36399;51.444;-2.018;2022-09-09T07:20:53;99521.44;;;14.99;100.00
43436;BME280;36399;51.444;-2.018;2022-09-09T07:23:19;99533.84;;;14.96;100.00
43436;BME280;36399;51.444;-2.018;2022-09-09T07:25:45;99548.84;;;14.95;100.00
43436;BME280;36399;51.444;-2.018;2022-09-09T07:28:11;99553.44;;;14.86;100.00
43436;BME280;36399;51.444;-2.018;2022-09-09T07:30:37;99548.59;;;15.07;100.00
43436;BME280;36399;51.444;-2.018;2022-09-09T07:33:03;99561.81;;;15.07;100.00
43436;BME280;36399;51.444;-2.018;2022-09-09T07:35:29;99564.22;;;15.20;100.00
43436;BME280;36399;51.444;-2.018;2022-09-09T07:37:55;99570.41;;;15.20;100.00
43436;BME280;36399;51.444;-2.018;2022-09-09T07:40:21;99573.94;;;15.19;100.00
43436;BME280;36399;51.444;-2.018;2022-09-09T07:42:47;99579.25;;;15.18;100.00
43436;BME280;36399;51.444;-2.018;2022-09-09T07:45:13;99585.06;;;15.35;100.00
43436;BME280;36399;51.444;-2.018;2022-09-09T07:47:40;99598.44;;;15.27;100.00
43436;BME280;36399;51.444;-2.018;2022-09-09T07:50:09;99604.72;;;15.22;100.00
43436;BME280;36399;51.444;-2.018;2022-09-09T07:52:35;99601.09;;;15.27;100.00
43436;BME280;36399;51.444;-2.018;2022-09-09T07:55:02;99607.84;;;15.42;100.00
43436;BME280;36399;51.444;-2.018;2022-09-09T07:57:30;99611.56;;;15.32;100.00
43436;BME280;36399;51.444;-2.018;2022-09-09T07:59:57;99621.19;;;15.36;100.00
43436;BME280;36399;51.444;-2.018;2022-09-09T08:02:24;99629.06;;;15.39;100.00
43436;BME280;36399;51.444;-2.018;2022-09-09T08:04:51;99623.31;;;15.63;100.00
43436;BME280;36399;51.444;-2.018;2022-09-09T08:07:17;99626.34;;;15.87;100.00
43436;BME280;36399;51.444;-2.018;2022-09-09T08:09:43;99630.97;;;16.17;100.00
43436;BME280;36399;51.444;-2.018;2022-09-09T08:12:10;99629.91;;;16.24;100.00
43436;BME280;36399;51.444;-2.018;2022-09-09T08:14:38;99641.19;;;16.32;100.00
43436;BME280;36399;51.444;-2.018;2022-09-09T08:17:05;99635.97;;;16.29;100.00
43436;BME280;36399;51.444;-2.018;2022-09-09T08:19:32;99645.38;;;16.41;100.00
43436;BME280;36399;51.444;-2.018;2022-09-09T08:22:02;99647.44;;;16.30;100.00
43436;BME280;36399;51.444;-2.018;2022-09-09T08:24:28;99656.28;;;16.29;100.00
43436;BME280;36399;51.444;-2.018;2022-09-09T08:26:55;99667.19;;;16.15;100.00
43436;BME280;36399;51.444;-2.018;2022-09-09T08:29:22;99670.59;;;16.20;100.00
43436;BME280;36399;51.444;-2.018;2022-09-09T08:31:50;99672.59;;;16.09;100.00
43436;BME280;36399;51.444;-2.018;2022-09-09T08:34:17;99679.28;;;15.87;100.00
43436;BME280;36399;51.444;-2.018;2022-09-09T08:36:46;99675.81;;;15.83;100.00
43436;BME280;36399;51.444;-2.018;2022-09-09T08:39:15;99677.31;;;15.95;100.00
43436;BME280;36399;51.444;-2.018;2022-09-09T08:53:01;99690.19;;;16.89;100.00
43436;BME280;36399;51.444;-2.018;2022-09-09T08:58:16;99703.25;;;16.96;100.00
43436;BME280;36399;51.444;-2.018;2022-09-09T09:06:26;99703.38;;;17.58;100.00
43436;BME280;36399;51.444;-2.018;2022-09-09T09:09:23;99712.38;;;17.85;100.00
43436;BME280;36399;51.444;-2.018;2022-09-09T09:11:56;99707.59;;;17.98;100.00
43436;BME280;36399;51.444;-2.018;2022-09-09T09:14:30;99721.94;;;18.22;100.00
43436;BME280;36399;51.444;-2.018;2022-09-09T09:17:05;99721.19;;;18.17;100.00
43436;BME280;36399;51.444;-2.018;2022-09-09T09:19:33;99728.63;;;18.35;100.00
43436;BME280;36399;51.444;-2.018;2022-09-09T09:25:03;99742.66;;;17.80;100.00
43436;BME280;36399;51.444;-2.018;2022-09-09T09:30:02;99746.13;;;17.14;100.00
43436;BME280;36399;51.444;-2.018;2022-09-09T09:32:33;99759.75;;;16.98;100.00
43436;BME280;36399;51.444;-2.018;2022-09-09T09:35:02;99763.09;;;17.07;100.00
43436;BME280;36399;51.444;-2.018;2022-09-09T09:37:32;99759.72;;;17.35;100.00
43436;BME280;36399;51.444;-2.018;2022-09-09T09:40:18;99766.38;;;17.52;100.00
43436;BME280;36399;51.444;-2.018;2022-09-09T09:45:35;99766.38;;;18.46;100.00
43436;BME280;36399;51.444;-2.018;2022-09-09T09:48:10;99773.56;;;19.00;100.00
43436;BME280;36399;51.444;-2.018;2022-09-09T09:50:47;99775.41;;;18.98;100.00
43436;BME280;36399;51.444;-2.018;2022-09-09T09:53:31;99778.75;;;19.05;100.00
43436;BME280;36399;51.444;-2.018;2022-09-09T09:56:11;99792.75;;;18.83;100.00
43436;BME280;36399;51.444;-2.018;2022-09-09T10:03:52;99786.91;;;18.99;100.00
43436;BME280;36399;51.444;-2.018;2022-09-09T10:06:39;99796.59;;;18.73;100.00
43436;BME280;36399;51.444;-2.018;2022-09-09T10:09:37;99792.47;;;18.63;100.00
43436;BME280;36399;51.444;-2.018;2022-09-09T10:15:01;99793.38;;;18.91;100.00
43436;BME280;36399;51.444;-2.018;2022-09-09T10:17:43;99799.94;;;18.80;100.00
43436;BME280;36399;51.444;-2.018;2022-09-09T10:23:15;99807.97;;;18.78;100.00
43436;BME280;36399;51.444;-2.018;2022-09-09T10:25:59;99810.31;;;18.28;100.00
43436;BME280;36399;51.444;-2.018;2022-09-09T10:28:54;99808.75;;;18.51;100.00
43436;BME280;36399;51.444;-2.018;2022-09-09T10:36:56;99807.09;;;18.47;100.00
43436;BME280;36399;51.444;-2.018;2022-09-09T10:42:07;99815.84;;;18.21;100.00
43436;BME280;36399;51.444;-2.018;2022-09-09T10:55:39;99818.63;;;18.16;100.00
43436;BME280;36399;51.444;-2.018;2022-09-09T10:58:11;99827.78;;;18.37;100.00
43436;BME280;36399;51.444;-2.018;2022-09-09T11:00:42;99834.41;;;18.22;100.00
43436;BME280;36399;51.444;-2.018;2022-09-09T11:03:20;99827.06;;;18.00;100.00
43436;BME280;36399;51.444;-2.018;2022-09-09T11:05:53;99838.03;;;17.87;100.00
43436;BME280;36399;51.444;-2.018;2022-09-09T11:11:03;99837.16;;;17.87;100.00
43436;BME280;36399;51.444;-2.018;2022-09-09T11:16:24;99834.41;;;18.22;100.00
43436;BME280;36399;51.444;-2.018;2022-09-09T11:18:58;99831.47;;;18.61;100.00
43436;BME280;36399;51.444;-2.018;2022-09-09T11:21:37;99832.97;;;18.71;100.00
43436;BME280;36399;51.444;-2.018;2022-09-09T11:24:18;99843.88;;;19.19;100.00
43436;BME280;36399;51.444;-2.018;2022-09-09T11:33:09;99846.50;;;20.97;100.00
43436;BME280;36399;51.444;-2.018;2022-09-09T11:36:22;99835.44;;;20.61;100.00
43436;BME280;36399;51.444;-2.018;2022-09-09T11:38:51;99840.09;;;21.01;100.00
43436;BME280;36399;51.444;-2.018;2022-09-09T11:41:19;99843.44;;;21.06;100.00
43436;BME280;36399;51.444;-2.018;2022-09-09T11:43:48;99840.53;;;21.12;100.00
43436;BME280;36399;51.444;-2.018;2022-09-09T11:46:20;99850.56;;;20.84;100.00
43436;BME280;36399;51.444;-2.018;2022-09-09T11:49:00;99852.75;;;21.41;100.00
43436;BME280;36399;51.444;-2.018;2022-09-09T11:51:28;99860.03;;;21.37;100.00
43436;BME280;36399;51.444;-2.018;2022-09-09T11:53:58;99854.31;;;21.67;100.00
43436;BME280;36399;51.444;-2.018;2022-09-09T11:56:45;99863.66;;;21.57;100.00
43436;BME280;36399;51.444;-2.018;2022-09-09T11:59:28;99868.44;;;21.27;100.00
43436;BME280;36399;51.444;-2.018;2022-09-09T12:02:15;99866.66;;;21.49;100.00
43436;BME280;36399;51.444;-2.018;2022-09-09T12:05:09;99861.16;;;21.74;100.00
43436;BME280;36399;51.444;-2.018;2022-09-09T12:07:41;99868.28;;;22.16;100.00
43436;BME280;36399;51.444;-2.018;2022-09-09T12:12:46;99870.47;;;23.96;100.00
43436;BME280;36399;51.444;-2.018;2022-09-09T12:28:18;99865.22;;;22.04;100.00
43436;BME280;36399;51.444;-2.018;2022-09-09T12:30:53;99870.19;;;22.32;100.00
43436;BME280;36399;51.444;-2.018;2022-09-09T12:33:22;99856.50;;;22.40;100.00
43436;BME280;36399;51.444;-2.018;2022-09-09T12:35:56;99862.19;;;22.72;100.00
43436;BME280;36399;51.444;-2.018;2022-09-09T12:40:58;99860.94;;;22.41;100.00
43436;BME280;36399;51.444;-2.018;2022-09-09T12:43:26;99870.38;;;21.23;100.00
43436;BME280;36399;51.444;-2.018;2022-09-09T12:45:55;99865.75;;;21.05;100.00
43436;BME280;36399;51.444;-2.018;2022-09-09T12:48:36;99868.81;;;21.82;100.00
43436;BME280;36399;51.444;-2.018;2022-09-09T12:51:07;99860.50;;;21.89;100.00
43436;BME280;36399;51.444;-2.018;2022-09-09T12:53:42;99857.22;;;21.40;100.00
43436;BME280;36399;51.444;-2.018;2022-09-09T12:56:18;99863.25;;;21.00;100.00
43436;BME280;36399;51.444;-2.018;2022-09-09T12:58:46;99864.19;;;20.76;100.00
43436;BME280;36399;51.444;-2.018;2022-09-09T13:01:25;99853.84;;;21.57;100.00
43436;BME280;36399;51.444;-2.018;2022-09-09T13:03:51;99855.59;;;21.58;100.00
43436;BME280;36399;51.444;-2.018;2022-09-09T13:06:24;99858.38;;;21.55;100.00
43436;BME280;36399;51.444;-2.018;2022-09-09T13:08:52;99851.59;;;21.03;100.00
43436;BME280;36399;51.444;-2.018;2022-09-09T13:11:24;99849.28;;;20.70;100.00
43436;BME280;36399;51.444;-2.018;2022-09-09T13:13:55;99856.56;;;21.12;100.00
43436;BME280;36399;51.444;-2.018;2022-09-09T13:16:29;99853.97;;;21.96;100.00
43436;BME280;36399;51.444;-2.018;2022-09-09T13:19:00;99845.81;;;22.40;100.00
43436;BME280;36399;51.444;-2.018;2022-09-09T13:21:34;99857.13;;;22.65;100.00
43436;BME280;36399;51.444;-2.018;2022-09-09T13:24:01;99846.81;;;21.97;100.00
43436;BME280;36399;51.444;-2.018;2022-09-09T13:26:29;99856.72;;;21.53;100.00
43436;BME280;36399;51.444;-2.018;2022-09-09T13:29:15;99864.81;;;21.06;100.00
43436;BME280;36399;51.444;-2.018;2022-09-09T13:31:44;99859.72;;;20.53;100.00
43436;BME280;36399;51.444;-2.018;2022-09-09T13:36:57;99863.59;;;19.95;100.00
43436;BME280;36399;51.444;-2.018;2022-09-09T13:39:24;99873.00;;;19.80;100.00
43436;BME280;36399;51.444;-2.018;2022-09-09T13:41:50;99870.84;;;20.41;100.00
43436;BME280;36399;51.444;-2.018;2022-09-09T13:44:26;99864.47;;;20.45;100.00
43436;BME280;36399;51.444;-2.018;2022-09-09T13:49:30;99873.59;;;20.63;100.00
43436;BME280;36399;51.444;-2.018;2022-09-09T13:52:13;99865.97;;;20.75;100.00
43436;BME280;36399;51.444;-2.018;2022-09-09T13:54:41;99867.91;;;21.17;100.00
43436;BME280;36399;51.444;-2.018;2022-09-09T13:57:24;99876.72;;;21.19;100.00
43436;BME280;36399;51.444;-2.018;2022-09-09T13:59:52;99872.25;;;21.43;100.00
43436;BME280;36399;51.444;-2.018;2022-09-09T14:02:18;99869.00;;;21.57;100.00
43436;BME280;36399;51.444;-2.018;2022-09-09T14:04:44;99878.13;;;22.15;100.00
43436;BME280;36399;51.444;-2.018;2022-09-09T14:07:15;99875.81;;;22.47;100.00
43436;BME280;36399;51.444;-2.018;2022-09-09T14:09:42;99882.47;;;22.18;100.00
43436;BME280;36399;51.444;-2.018;2022-09-09T14:12:11;99877.25;;;22.15;100.00
43436;BME280;36399;51.444;-2.018;2022-09-09T14:14:38;99883.50;;;21.93;100.00
43436;BME280;36399;51.444;-2.018;2022-09-09T14:17:04;99876.75;;;22.46;100.00
43436;BME280;36399;51.444;-2.018;2022-09-09T14:19:30;99875.78;;;22.08;100.00
43436;BME280;36399;51.444;-2.018;2022-09-09T14:21:57;99884.69;;;21.86;100.00
43436;BME280;36399;51.444;-2.018;2022-09-09T14:24:23;99877.94;;;21.56;100.00
43436;BME280;36399;51.444;-2.018;2022-09-09T14:26:49;99881.16;;;21.86;100.00
43436;BME280;36399;51.444;-2.018;2022-09-09T14:29:15;99880.72;;;22.17;100.00
43436;BME280;36399;51.444;-2.018;2022-09-09T14:31:41;99877.44;;;21.68;100.00
43436;BME280;36399;51.444;-2.018;2022-09-09T14:34:07;99881.59;;;21.75;100.00
43436;BME280;36399;51.444;-2.018;2022-09-09T14:36:33;99893.28;;;22.15;100.00
43436;BME280;36399;51.444;-2.018;2022-09-09T14:38:59;99908.91;;;22.24;100.00
43436;BME280;36399;51.444;-2.018;2022-09-09T14:41:25;99894.59;;;21.62;100.00
43436;BME280;36399;51.444;-2.018;2022-09-09T14:43:51;99898.47;;;21.76;100.00
43436;BME280;36399;51.444;-2.018;2022-09-09T14:46:19;99893.94;;;21.35;100.00
43436;BME280;36399;51.444;-2.018;2022-09-09T14:48:45;99903.16;;;21.27;100.00
43436;BME280;36399;51.444;-2.018;2022-09-09T14:51:16;99891.47;;;21.29;100.00
43436;BME280;36399;51.444;-2.018;2022-09-09T14:53:43;99891.25;;;21.35;100.00
43436;BME280;36399;51.444;-2.018;2022-09-09T14:56:18;99881.13;;;21.20;100.00
43436;BME280;36399;51.444;-2.018;2022-09-09T14:58:45;99884.59;;;21.46;100.00
43436;BME280;36399;51.444;-2.018;2022-09-09T15:01:14;99886.47;;;21.20;100.00
43436;BME280;36399;51.444;-2.018;2022-09-09T15:03:42;99892.88;;;21.39;100.00
43436;BME280;36399;51.444;-2.018;2022-09-09T15:06:11;99882.84;;;21.23;100.00
43436;BME280;36399;51.444;-2.018;2022-09-09T15:08:39;99878.91;;;21.75;100.00
43436;BME280;36399;51.444;-2.018;2022-09-09T15:11:06;99879.72;;;21.77;100.00